sensor_id;sensor_type;location;lat;lon;timestamp;P1;durP1;ratioP1;P2;durP2;ratioP2
12715;SDS011;6422;49.938;9.124;2023-04-29T00:01:29;3.50;;;1.07;;
12715;SDS011;6422;49.938;9.124;2023-04-29T00:03:55;1.07;;;0.80;;
12715;SDS011;6422;49.938;9.124;2023-04-29T00:06:20;1.37;;;0.80;;
12715;SDS011;6422;49.938;9.124;2023-04-29T00:08:45;1.40;;;1.10;;
12715;SDS011;6422;49.938;9.124;2023-04-29T00:11:10;2.80;;;1.13;;
12715;SDS011;6422;49.938;9.124;2023-04-29T00:13:36;1.10;;;0.90;;
12715;SDS011;6422;49.938;9.124;2023-04-29T00:16:01;1.73;;;0.97;;
12715;SDS011;6422;49.938;9.124;2023-04-29T00:18:26;1.70;;;1.03;;
12715;SDS011;6422;49.938;9.124;2023-04-29T00:20:52;1.60;;;0.90;;
12715;SDS011;6422;49.938;9.124;2023-04-29T00:23:17;1.67;;;1.58;;
12715;SDS011;6422;49.938;9.124;2023-04-29T00:25:42;1.93;;;1.23;;
12715;SDS011;6422;49.938;9.124;2023-04-29T00:28:07;1.55;;;1.00;;
12715;SDS011;6422;49.938;9.124;2023-04-29T00:30:32;1.13;;;0.80;;
12715;SDS011;6422;49.938;9.124;2023-04-29T00:32:58;1.40;;;0.93;;
12715;SDS011;6422;49.938;9.124;2023-04-29T00:35:23;1.90;;;1.37;;
12715;SDS011;6422;49.938;9.124;2023-04-29T00:37:48;1.48;;;1.27;;
12715;SDS011;6422;49.938;9.124;2023-04-29T00:40:14;1.13;;;0.90;;
12715;SDS011;6422;49.938;9.124;2023-04-29T00:42:40;1.40;;;0.90;;
12715;SDS011;6422;49.938;9.124;2023-04-29T00:45:06;1.50;;;0.90;;
12715;SDS011;6422;49.938;9.124;2023-04-29T00:47:31;1.80;;;1.40;;
12715;SDS011;6422;49.938;9.124;2023-04-29T00:49:57;2.17;;;1.43;;
12715;SDS011;6422;49.938;9.124;2023-04-29T00:52:22;3.40;;;1.23;;
12715;SDS011;6422;49.938;9.124;2023-04-29T00:54:47;4.30;;;1.40;;
12715;SDS011;6422;49.938;9.124;2023-04-29T00:57:13;1.87;;;1.37;;
12715;SDS011;6422;49.938;9.124;2023-04-29T00:59:38;0.83;;;0.80;;
12715;SDS011;6422;49.938;9.124;2023-04-29T01:02:03;1.80;;;1.10;;
12715;SDS011;6422;49.938;9.124;2023-04-29T01:04:29;1.30;;;1.00;;
12715;SDS011;6422;49.938;9.124;2023-04-29T01:14:22;3.03;;;1.17;;
12715;SDS011;6422;49.938;9.124;2023-04-29T01:16:50;2.60;;;1.60;;
12715;SDS011;6422;49.938;9.124;2023-04-29T01:19:28;1.90;;;1.03;;
12715;SDS011;6422;49.938;9.124;2023-04-29T01:21:57;7.80;;;1.20;;
12715;SDS011;6422;49.938;9.124;2023-04-29T01:24:22;1.70;;;1.13;;
12715;SDS011;6422;49.938;9.124;2023-04-29T01:26:55;2.60;;;1.20;;
12715;SDS011;6422;49.938;9.124;2023-04-29T01:29:24;2.20;;;1.30;;
12715;SDS011;6422;49.938;9.124;2023-04-29T01:31:57;1.87;;;1.50;;
12715;SDS011;6422;49.938;9.124;2023-04-29T01:34:30;2.63;;;1.37;;
12715;SDS011;6422;49.938;9.124;2023-04-29T01:37:21;2.30;;;1.23;;
12715;SDS011;6422;49.938;9.124;2023-04-29T01:40:10;5.10;;;1.90;;
12715;SDS011;6422;49.938;9.124;2023-04-29T01:42:40;2.20;;;1.47;;
12715;SDS011;6422;49.938;9.124;2023-04-29T01:45:09;1.67;;;1.07;;
12715;SDS011;6422;49.938;9.124;2023-04-29T01:47:35;1.63;;;1.10;;
12715;SDS011;6422;49.938;9.124;2023-04-29T01:50:00;1.47;;;1.00;;
12715;SDS011;6422;49.938;9.124;2023-04-29T01:52:26;1.50;;;1.10;;
12715;SDS011;6422;49.938;9.124;2023-04-29T01:54:52;7.80;;;1.07;;
12715;SDS011;6422;49.938;9.124;2023-04-29T01:57:17;1.40;;;1.20;;
12715;SDS011;6422;49.938;9.124;2023-04-29T01:59:43;1.50;;;1.30;;
12715;SDS011;6422;49.938;9.124;2023-04-29T02:02:08;1.00;;;0.80;;
12715;SDS011;6422;49.938;9.124;2023-04-29T02:04:34;1.80;;;1.30;;
12715;SDS011;6422;49.938;9.124;2023-04-29T02:06:59;1.20;;;0.80;;
12715;SDS011;6422;49.938;9.124;2023-04-29T02:09:25;2.70;;;1.00;;
12715;SDS011;6422;49.938;9.124;2023-04-29T02:11:50;1.10;;;0.90;;
12715;SDS011;6422;49.938;9.124;2023-04-29T02:14:15;1.40;;;1.17;;
12715;SDS011;6422;49.938;9.124;2023-04-29T02:16:43;3.05;;;1.23;;
12715;SDS011;6422;49.938;9.124;2023-04-29T02:19:08;1.80;;;0.90;;
12715;SDS011;6422;49.938;9.124;2023-04-29T02:21:33;1.27;;;0.80;;
12715;SDS011;6422;49.938;9.124;2023-04-29T02:23:59;1.63;;;1.03;;
12715;SDS011;6422;49.938;9.124;2023-04-29T02:26:24;1.38;;;1.02;;
12715;SDS011;6422;49.938;9.124;2023-04-29T02:28:49;2.20;;;1.10;;
12715;SDS011;6422;49.938;9.124;2023-04-29T02:31:16;2.00;;;1.33;;
12715;SDS011;6422;49.938;9.124;2023-04-29T02:33:41;1.70;;;0.90;;
12715;SDS011;6422;49.938;9.124;2023-04-29T02:36:06;2.50;;;1.20;;
12715;SDS011;6422;49.938;9.124;2023-04-29T02:38:31;1.67;;;1.05;;
12715;SDS011;6422;49.938;9.124;2023-04-29T02:40:56;1.65;;;1.17;;
12715;SDS011;6422;49.938;9.124;2023-04-29T02:43:22;11.33;;;1.30;;
12715;SDS011;6422;49.938;9.124;2023-04-29T02:45:47;1.73;;;0.93;;
12715;SDS011;6422;49.938;9.124;2023-04-29T02:48:12;2.33;;;1.10;;
12715;SDS011;6422;49.938;9.124;2023-04-29T02:50:37;1.50;;;1.13;;
12715;SDS011;6422;49.938;9.124;2023-04-29T02:53:02;3.53;;;1.87;;
12715;SDS011;6422;49.938;9.124;2023-04-29T02:55:28;1.37;;;1.27;;
12715;SDS011;6422;49.938;9.124;2023-04-29T02:57:53;1.23;;;0.80;;
12715;SDS011;6422;49.938;9.124;2023-04-29T03:00:18;2.70;;;0.90;;
12715;SDS011;6422;49.938;9.124;2023-04-29T03:02:44;1.47;;;1.03;;
12715;SDS011;6422;49.938;9.124;2023-04-29T03:05:09;2.43;;;1.13;;
12715;SDS011;6422;49.938;9.124;2023-04-29T03:07:35;1.50;;;1.03;;
12715;SDS011;6422;49.938;9.124;2023-04-29T03:10:00;1.67;;;1.20;;
12715;SDS011;6422;49.938;9.124;2023-04-29T03:12:25;3.83;;;1.73;;
12715;SDS011;6422;49.938;9.124;2023-04-29T03:14:50;10.27;;;1.87;;
12715;SDS011;6422;49.938;9.124;2023-04-29T03:17:16;2.03;;;1.20;;
12715;SDS011;6422;49.938;9.124;2023-04-29T03:19:41;2.33;;;1.75;;
12715;SDS011;6422;49.938;9.124;2023-04-29T03:22:06;2.10;;;1.40;;
12715;SDS011;6422;49.938;9.124;2023-04-29T03:24:34;7.27;;;1.53;;
12715;SDS011;6422;49.938;9.124;2023-04-29T03:26:59;1.10;;;1.00;;
12715;SDS011;6422;49.938;9.124;2023-04-29T03:29:25;1.40;;;1.07;;
12715;SDS011;6422;49.938;9.124;2023-04-29T03:31:51;1.67;;;1.30;;
12715;SDS011;6422;49.938;9.124;2023-04-29T03:34:16;2.60;;;1.30;;
12715;SDS011;6422;49.938;9.124;2023-04-29T03:36:41;1.27;;;1.10;;
12715;SDS011;6422;49.938;9.124;2023-04-29T03:39:07;2.73;;;1.40;;
12715;SDS011;6422;49.938;9.124;2023-04-29T03:41:32;1.53;;;1.10;;
12715;SDS011;6422;49.938;9.124;2023-04-29T03:43:57;2.60;;;1.50;;
12715;SDS011;6422;49.938;9.124;2023-04-29T03:46:25;1.60;;;1.50;;
12715;SDS011;6422;49.938;9.124;2023-04-29T03:48:50;8.93;;;1.93;;
12715;SDS011;6422;49.938;9.124;2023-04-29T03:51:15;2.63;;;1.70;;
12715;SDS011;6422;49.938;9.124;2023-04-29T03:53:41;2.50;;;1.37;;
12715;SDS011;6422;49.938;9.124;2023-04-29T03:56:06;1.50;;;1.30;;
12715;SDS011;6422;49.938;9.124;2023-04-29T03:58:31;4.60;;;1.73;;
12715;SDS011;6422;49.938;9.124;2023-04-29T04:00:56;1.80;;;1.27;;
12715;SDS011;6422;49.938;9.124;2023-04-29T04:03:22;4.80;;;1.67;;
12715;SDS011;6422;49.938;9.124;2023-04-29T04:05:49;2.60;;;1.70;;
12715;SDS011;6422;49.938;9.124;2023-04-29T04:08:14;1.50;;;1.35;;
12715;SDS011;6422;49.938;9.124;2023-04-29T04:10:39;2.23;;;1.57;;
12715;SDS011;6422;49.938;9.124;2023-04-29T04:13:05;2.85;;;1.45;;
12715;SDS011;6422;49.938;9.124;2023-04-29T04:15:30;1.33;;;1.23;;
12715;SDS011;6422;49.938;9.124;2023-04-29T04:17:55;2.40;;;1.53;;
12715;SDS011;6422;49.938;9.124;2023-04-29T04:20:20;3.47;;;1.30;;
12715;SDS011;6422;49.938;9.124;2023-04-29T04:22:45;1.35;;;1.25;;
12715;SDS011;6422;49.938;9.124;2023-04-29T04:25:11;2.10;;;1.40;;
12715;SDS011;6422;49.938;9.124;2023-04-29T04:27:36;3.87;;;1.40;;
12715;SDS011;6422;49.938;9.124;2023-04-29T04:30:01;1.98;;;1.17;;
12715;SDS011;6422;49.938;9.124;2023-04-29T04:32:26;2.78;;;1.33;;
12715;SDS011;6422;49.938;9.124;2023-04-29T04:34:51;2.08;;;1.67;;
12715;SDS011;6422;49.938;9.124;2023-04-29T04:37:16;2.07;;;1.30;;
12715;SDS011;6422;49.938;9.124;2023-04-29T04:39:42;1.97;;;1.40;;
12715;SDS011;6422;49.938;9.124;2023-04-29T04:42:07;2.30;;;1.40;;
12715;SDS011;6422;49.938;9.124;2023-04-29T04:44:32;1.73;;;1.25;;
12715;SDS011;6422;49.938;9.124;2023-04-29T04:46:57;1.93;;;1.27;;
12715;SDS011;6422;49.938;9.124;2023-04-29T04:49:25;2.70;;;1.90;;
12715;SDS011;6422;49.938;9.124;2023-04-29T04:51:50;1.90;;;1.20;;
12715;SDS011;6422;49.938;9.124;2023-04-29T04:54:15;1.40;;;0.90;;
12715;SDS011;6422;49.938;9.124;2023-04-29T04:56:40;1.47;;;1.10;;
12715;SDS011;6422;49.938;9.124;2023-04-29T04:59:05;1.52;;;1.38;;
12715;SDS011;6422;49.938;9.124;2023-04-29T05:01:31;1.75;;;1.30;;
12715;SDS011;6422;49.938;9.124;2023-04-29T05:03:56;1.63;;;1.37;;
12715;SDS011;6422;49.938;9.124;2023-04-29T05:06:22;2.07;;;1.33;;
12715;SDS011;6422;49.938;9.124;2023-04-29T05:08:47;1.20;;;1.03;;
12715;SDS011;6422;49.938;9.124;2023-04-29T05:11:16;3.22;;;1.30;;
12715;SDS011;6422;49.938;9.124;2023-04-29T05:13:41;2.57;;;1.43;;
12715;SDS011;6422;49.938;9.124;2023-04-29T05:16:06;2.72;;;1.42;;
12715;SDS011;6422;49.938;9.124;2023-04-29T05:18:32;3.20;;;1.63;;
12715;SDS011;6422;49.938;9.124;2023-04-29T05:20:57;1.83;;;1.23;;
12715;SDS011;6422;49.938;9.124;2023-04-29T05:23:23;3.37;;;1.57;;
12715;SDS011;6422;49.938;9.124;2023-04-29T05:25:49;1.53;;;1.17;;
12715;SDS011;6422;49.938;9.124;2023-04-29T05:28:14;1.60;;;1.42;;
12715;SDS011;6422;49.938;9.124;2023-04-29T05:30:39;1.27;;;1.03;;
12715;SDS011;6422;49.938;9.124;2023-04-29T05:33:04;1.37;;;1.13;;
12715;SDS011;6422;49.938;9.124;2023-04-29T05:35:30;1.90;;;1.40;;
12715;SDS011;6422;49.938;9.124;2023-04-29T05:37:56;4.57;;;2.10;;
12715;SDS011;6422;49.938;9.124;2023-04-29T05:40:21;6.50;;;1.45;;
12715;SDS011;6422;49.938;9.124;2023-04-29T05:42:47;3.27;;;1.80;;
12715;SDS011;6422;49.938;9.124;2023-04-29T05:45:12;1.20;;;1.10;;
12715;SDS011;6422;49.938;9.124;2023-04-29T05:47:37;5.00;;;1.90;;
12715;SDS011;6422;49.938;9.124;2023-04-29T05:50:02;3.80;;;2.20;;
12715;SDS011;6422;49.938;9.124;2023-04-29T05:52:27;3.20;;;2.40;;
12715;SDS011;6422;49.938;9.124;2023-04-29T05:54:53;5.32;;;2.05;;
12715;SDS011;6422;49.938;9.124;2023-04-29T05:57:18;5.13;;;2.70;;
12715;SDS011;6422;49.938;9.124;2023-04-29T05:59:43;2.60;;;1.60;;
12715;SDS011;6422;49.938;9.124;2023-04-29T06:02:09;4.13;;;2.60;;
12715;SDS011;6422;49.938;9.124;2023-04-29T06:04:35;4.07;;;2.60;;
12715;SDS011;6422;49.938;9.124;2023-04-29T06:07:01;3.30;;;2.23;;
12715;SDS011;6422;49.938;9.124;2023-04-29T06:09:26;6.70;;;3.53;;
12715;SDS011;6422;49.938;9.124;2023-04-29T06:11:51;5.33;;;2.70;;
12715;SDS011;6422;49.938;9.124;2023-04-29T06:14:17;3.03;;;2.07;;
12715;SDS011;6422;49.938;9.124;2023-04-29T06:16:42;3.10;;;1.93;;
12715;SDS011;6422;49.938;9.124;2023-04-29T06:19:07;8.70;;;3.23;;
12715;SDS011;6422;49.938;9.124;2023-04-29T06:21:33;4.43;;;2.87;;
12715;SDS011;6422;49.938;9.124;2023-04-29T06:23:58;3.07;;;2.20;;
12715;SDS011;6422;49.938;9.124;2023-04-29T06:26:23;3.63;;;2.60;;
12715;SDS011;6422;49.938;9.124;2023-04-29T06:28:48;5.00;;;2.27;;
12715;SDS011;6422;49.938;9.124;2023-04-29T06:31:14;2.67;;;1.90;;
12715;SDS011;6422;49.938;9.124;2023-04-29T06:33:39;5.70;;;2.70;;
12715;SDS011;6422;49.938;9.124;2023-04-29T06:36:04;4.23;;;2.30;;
12715;SDS011;6422;49.938;9.124;2023-04-29T06:38:30;5.97;;;2.97;;
12715;SDS011;6422;49.938;9.124;2023-04-29T06:40:55;3.80;;;2.57;;
12715;SDS011;6422;49.938;9.124;2023-04-29T06:43:24;5.10;;;2.60;;
12715;SDS011;6422;49.938;9.124;2023-04-29T06:45:50;3.00;;;1.70;;
12715;SDS011;6422;49.938;9.124;2023-04-29T06:48:15;3.92;;;2.13;;
12715;SDS011;6422;49.938;9.124;2023-04-29T06:50:47;3.37;;;2.17;;
12715;SDS011;6422;49.938;9.124;2023-04-29T06:53:13;3.97;;;1.97;;
12715;SDS011;6422;49.938;9.124;2023-04-29T06:55:38;2.80;;;2.05;;
12715;SDS011;6422;49.938;9.124;2023-04-29T06:58:03;3.85;;;1.48;;
12715;SDS011;6422;49.938;9.124;2023-04-29T07:00:28;1.67;;;1.40;;
12715;SDS011;6422;49.938;9.124;2023-04-29T07:02:54;3.27;;;1.90;;
12715;SDS011;6422;49.938;9.124;2023-04-29T07:05:19;2.57;;;1.60;;
12715;SDS011;6422;49.938;9.124;2023-04-29T07:07:44;1.20;;;0.88;;
12715;SDS011;6422;49.938;9.124;2023-04-29T07:10:10;6.70;;;1.50;;
12715;SDS011;6422;49.938;9.124;2023-04-29T07:12:35;3.60;;;1.40;;
12715;SDS011;6422;49.938;9.124;2023-04-29T07:15:01;2.80;;;1.40;;
12715;SDS011;6422;49.938;9.124;2023-04-29T07:17:28;2.40;;;1.40;;
12715;SDS011;6422;49.938;9.124;2023-04-29T07:19:53;5.03;;;1.63;;
12715;SDS011;6422;49.938;9.124;2023-04-29T07:22:18;1.95;;;1.40;;
12715;SDS011;6422;49.938;9.124;2023-04-29T07:24:44;2.67;;;1.10;;
12715;SDS011;6422;49.938;9.124;2023-04-29T07:27:09;2.03;;;1.30;;
12715;SDS011;6422;49.938;9.124;2023-04-29T07:29:34;1.52;;;1.20;;
12715;SDS011;6422;49.938;9.124;2023-04-29T07:31:59;2.15;;;1.27;;
12715;SDS011;6422;49.938;9.124;2023-04-29T07:34:24;6.47;;;2.25;;
12715;SDS011;6422;49.938;9.124;2023-04-29T07:36:49;2.40;;;1.40;;
12715;SDS011;6422;49.938;9.124;2023-04-29T07:39:15;2.10;;;1.23;;
12715;SDS011;6422;49.938;9.124;2023-04-29T07:41:41;2.43;;;1.63;;
12715;SDS011;6422;49.938;9.124;2023-04-29T07:44:06;2.05;;;1.15;;
12715;SDS011;6422;49.938;9.124;2023-04-29T07:46:31;1.53;;;1.00;;
12715;SDS011;6422;49.938;9.124;2023-04-29T07:48:56;2.93;;;1.47;;
12715;SDS011;6422;49.938;9.124;2023-04-29T07:51:22;1.57;;;1.07;;
12715;SDS011;6422;49.938;9.124;2023-04-29T07:53:47;1.57;;;1.10;;
12715;SDS011;6422;49.938;9.124;2023-04-29T07:56:12;2.60;;;1.83;;
12715;SDS011;6422;49.938;9.124;2023-04-29T07:58:37;1.30;;;1.00;;
12715;SDS011;6422;49.938;9.124;2023-04-29T08:01:08;7.90;;;1.30;;
12715;SDS011;6422;49.938;9.124;2023-04-29T08:03:35;2.33;;;1.30;;
12715;SDS011;6422;49.938;9.124;2023-04-29T08:06:01;1.63;;;1.13;;
12715;SDS011;6422;49.938;9.124;2023-04-29T08:08:27;1.93;;;1.30;;
12715;SDS011;6422;49.938;9.124;2023-04-29T08:10:52;2.80;;;1.43;;
12715;SDS011;6422;49.938;9.124;2023-04-29T08:13:18;8.17;;;1.27;;
12715;SDS011;6422;49.938;9.124;2023-04-29T08:15:43;2.55;;;1.65;;
12715;SDS011;6422;49.938;9.124;2023-04-29T08:18:08;3.73;;;1.20;;
12715;SDS011;6422;49.938;9.124;2023-04-29T08:20:33;2.23;;;1.37;;
12715;SDS011;6422;49.938;9.124;2023-04-29T08:22:58;2.87;;;2.03;;
12715;SDS011;6422;49.938;9.124;2023-04-29T08:25:24;4.93;;;1.40;;
12715;SDS011;6422;49.938;9.124;2023-04-29T08:27:50;2.47;;;1.40;;
12715;SDS011;6422;49.938;9.124;2023-04-29T08:30:16;3.00;;;1.67;;
12715;SDS011;6422;49.938;9.124;2023-04-29T08:32:41;2.27;;;0.97;;
12715;SDS011;6422;49.938;9.124;2023-04-29T08:35:06;2.63;;;1.47;;
12715;SDS011;6422;49.938;9.124;2023-04-29T08:37:32;1.93;;;1.17;;
12715;SDS011;6422;49.938;9.124;2023-04-29T08:39:57;3.10;;;1.77;;
12715;SDS011;6422;49.938;9.124;2023-04-29T08:42:32;5.63;;;1.67;;
12715;SDS011;6422;49.938;9.124;2023-04-29T08:44:57;2.80;;;1.60;;
12715;SDS011;6422;49.938;9.124;2023-04-29T08:47:23;2.70;;;1.30;;
12715;SDS011;6422;49.938;9.124;2023-04-29T08:49:49;2.07;;;1.10;;
12715;SDS011;6422;49.938;9.124;2023-04-29T08:52:14;1.70;;;1.03;;
12715;SDS011;6422;49.938;9.124;2023-04-29T08:54:39;1.88;;;1.13;;
12715;SDS011;6422;49.938;9.124;2023-04-29T08:57:05;2.50;;;1.50;;
12715;SDS011;6422;49.938;9.124;2023-04-29T08:59:30;1.20;;;0.93;;
12715;SDS011;6422;49.938;9.124;2023-04-29T09:01:56;2.10;;;1.40;;
12715;SDS011;6422;49.938;9.124;2023-04-29T09:04:28;2.00;;;0.93;;
12715;SDS011;6422;49.938;9.124;2023-04-29T09:06:57;1.30;;;0.93;;
12715;SDS011;6422;49.938;9.124;2023-04-29T09:09:23;5.50;;;0.93;;
12715;SDS011;6422;49.938;9.124;2023-04-29T09:11:48;1.10;;;0.87;;
12715;SDS011;6422;49.938;9.124;2023-04-29T09:14:14;1.27;;;0.65;;
12715;SDS011;6422;49.938;9.124;2023-04-29T09:16:39;2.50;;;1.03;;
12715;SDS011;6422;49.938;9.124;2023-04-29T09:19:04;2.30;;;0.90;;
12715;SDS011;6422;49.938;9.124;2023-04-29T09:21:30;2.23;;;1.00;;
12715;SDS011;6422;49.938;9.124;2023-04-29T09:23:59;2.17;;;1.23;;
12715;SDS011;6422;49.938;9.124;2023-04-29T09:26:24;2.40;;;1.33;;
12715;SDS011;6422;49.938;9.124;2023-04-29T09:29:04;1.10;;;0.80;;
12715;SDS011;6422;49.938;9.124;2023-04-29T09:31:30;1.63;;;0.90;;
12715;SDS011;6422;49.938;9.124;2023-04-29T09:33:55;2.65;;;1.17;;
12715;SDS011;6422;49.938;9.124;2023-04-29T09:38:59;1.93;;;1.10;;
12715;SDS011;6422;49.938;9.124;2023-04-29T09:41:24;3.22;;;1.38;;
12715;SDS011;6422;49.938;9.124;2023-04-29T09:44:01;2.37;;;1.27;;
12715;SDS011;6422;49.938;9.124;2023-04-29T09:46:28;2.60;;;1.60;;
12715;SDS011;6422;49.938;9.124;2023-04-29T09:48:53;2.37;;;1.20;;
12715;SDS011;6422;49.938;9.124;2023-04-29T09:51:18;1.95;;;1.48;;
12715;SDS011;6422;49.938;9.124;2023-04-29T09:53:43;6.60;;;1.58;;
12715;SDS011;6422;49.938;9.124;2023-04-29T09:56:09;5.70;;;1.50;;
12715;SDS011;6422;49.938;9.124;2023-04-29T09:58:34;4.40;;;1.20;;
12715;SDS011;6422;49.938;9.124;2023-04-29T10:01:03;3.30;;;2.13;;
12715;SDS011;6422;49.938;9.124;2023-04-29T10:03:35;2.13;;;1.47;;
12715;SDS011;6422;49.938;9.124;2023-04-29T10:06:01;2.17;;;1.30;;
12715;SDS011;6422;49.938;9.124;2023-04-29T10:08:27;4.53;;;1.77;;
12715;SDS011;6422;49.938;9.124;2023-04-29T10:10:53;2.30;;;1.47;;
12715;SDS011;6422;49.938;9.124;2023-04-29T10:13:22;2.27;;;1.63;;
12715;SDS011;6422;49.938;9.124;2023-04-29T10:15:48;2.30;;;1.47;;
12715;SDS011;6422;49.938;9.124;2023-04-29T10:20:45;6.47;;;1.88;;
12715;SDS011;6422;49.938;9.124;2023-04-29T10:23:11;2.47;;;1.57;;
12715;SDS011;6422;49.938;9.124;2023-04-29T10:25:37;3.67;;;2.13;;
12715;SDS011;6422;49.938;9.124;2023-04-29T10:28:03;3.13;;;1.83;;
12715;SDS011;6422;49.938;9.124;2023-04-29T10:30:30;1.57;;;1.23;;
12715;SDS011;6422;49.938;9.124;2023-04-29T10:32:55;2.67;;;1.63;;
12715;SDS011;6422;49.938;9.124;2023-04-29T10:35:23;2.07;;;1.33;;
12715;SDS011;6422;49.938;9.124;2023-04-29T10:37:49;1.60;;;1.10;;
12715;SDS011;6422;49.938;9.124;2023-04-29T10:40:15;1.53;;;1.13;;
12715;SDS011;6422;49.938;9.124;2023-04-29T10:42:44;2.92;;;1.80;;
12715;SDS011;6422;49.938;9.124;2023-04-29T10:45:28;3.03;;;1.70;;
12715;SDS011;6422;49.938;9.124;2023-04-29T10:50:30;1.30;;;0.80;;
12715;SDS011;6422;49.938;9.124;2023-04-29T10:52:55;1.40;;;0.80;;
12715;SDS011;6422;49.938;9.124;2023-04-29T10:55:24;1.53;;;1.00;;
12715;SDS011;6422;49.938;9.124;2023-04-29T10:57:53;1.87;;;1.10;;
12715;SDS011;6422;49.938;9.124;2023-04-29T11:00:27;1.60;;;1.17;;
12715;SDS011;6422;49.938;9.124;2023-04-29T11:02:52;2.37;;;1.23;;
12715;SDS011;6422;49.938;9.124;2023-04-29T11:05:28;3.00;;;1.60;;
12715;SDS011;6422;49.938;9.124;2023-04-29T11:08:13;4.27;;;2.27;;
12715;SDS011;6422;49.938;9.124;2023-04-29T11:10:40;2.37;;;1.30;;
12715;SDS011;6422;49.938;9.124;2023-04-29T11:13:22;2.90;;;1.43;;
12715;SDS011;6422;49.938;9.124;2023-04-29T11:15:47;1.40;;;1.00;;
12715;SDS011;6422;49.938;9.124;2023-04-29T11:18:13;2.50;;;2.03;;
12715;SDS011;6422;49.938;9.124;2023-04-29T11:23:25;2.13;;;0.90;;
12715;SDS011;6422;49.938;9.124;2023-04-29T11:25:51;1.77;;;1.20;;
12715;SDS011;6422;49.938;9.124;2023-04-29T11:28:16;1.10;;;0.80;;
12715;SDS011;6422;49.938;9.124;2023-04-29T11:30:42;2.27;;;1.17;;
12715;SDS011;6422;49.938;9.124;2023-04-29T11:33:07;3.13;;;1.70;;
12715;SDS011;6422;49.938;9.124;2023-04-29T11:35:32;2.20;;;1.17;;
12715;SDS011;6422;49.938;9.124;2023-04-29T11:37:58;2.27;;;1.70;;
12715;SDS011;6422;49.938;9.124;2023-04-29T11:40:23;1.57;;;0.93;;
12715;SDS011;6422;49.938;9.124;2023-04-29T11:42:49;4.40;;;1.20;;
12715;SDS011;6422;49.938;9.124;2023-04-29T11:45:16;2.00;;;1.20;;
12715;SDS011;6422;49.938;9.124;2023-04-29T11:47:45;1.73;;;0.90;;
12715;SDS011;6422;49.938;9.124;2023-04-29T11:50:10;1.60;;;1.10;;
12715;SDS011;6422;49.938;9.124;2023-04-29T11:52:37;1.43;;;1.07;;
12715;SDS011;6422;49.938;9.124;2023-04-29T11:55:03;3.60;;;1.07;;
12715;SDS011;6422;49.938;9.124;2023-04-29T11:57:28;2.40;;;1.60;;
12715;SDS011;6422;49.938;9.124;2023-04-29T11:59:53;1.30;;;0.93;;
12715;SDS011;6422;49.938;9.124;2023-04-29T12:02:22;2.00;;;1.23;;
12715;SDS011;6422;49.938;9.124;2023-04-29T12:04:47;2.30;;;1.27;;
12715;SDS011;6422;49.938;9.124;2023-04-29T12:07:13;1.90;;;0.97;;
12715;SDS011;6422;49.938;9.124;2023-04-29T12:09:42;3.43;;;1.87;;
12715;SDS011;6422;49.938;9.124;2023-04-29T12:12:07;1.70;;;1.00;;
12715;SDS011;6422;49.938;9.124;2023-04-29T12:14:32;1.37;;;0.83;;
12715;SDS011;6422;49.938;9.124;2023-04-29T12:16:58;1.20;;;0.83;;
12715;SDS011;6422;49.938;9.124;2023-04-29T12:19:23;4.60;;;1.07;;
12715;SDS011;6422;49.938;9.124;2023-04-29T12:21:48;14.30;;;1.20;;
12715;SDS011;6422;49.938;9.124;2023-04-29T12:24:14;11.80;;;1.47;;
12715;SDS011;6422;49.938;9.124;2023-04-29T12:26:39;1.20;;;0.80;;
12715;SDS011;6422;49.938;9.124;2023-04-29T12:29:05;1.77;;;1.10;;
12715;SDS011;6422;49.938;9.124;2023-04-29T12:31:34;2.43;;;1.20;;
12715;SDS011;6422;49.938;9.124;2023-04-29T12:34:00;2.07;;;0.93;;
12715;SDS011;6422;49.938;9.124;2023-04-29T12:36:27;1.13;;;0.87;;
12715;SDS011;6422;49.938;9.124;2023-04-29T12:38:52;1.77;;;0.90;;
12715;SDS011;6422;49.938;9.124;2023-04-29T12:41:19;1.20;;;0.80;;
12715;SDS011;6422;49.938;9.124;2023-04-29T12:43:59;1.80;;;1.23;;
12715;SDS011;6422;49.938;9.124;2023-04-29T12:46:24;1.52;;;0.90;;
12715;SDS011;6422;49.938;9.124;2023-04-29T12:48:50;1.20;;;0.77;;
12715;SDS011;6422;49.938;9.124;2023-04-29T12:51:15;2.50;;;1.37;;
12715;SDS011;6422;49.938;9.124;2023-04-29T12:53:40;1.10;;;0.60;;
12715;SDS011;6422;49.938;9.124;2023-04-29T12:56:06;2.10;;;0.80;;
12715;SDS011;6422;49.938;9.124;2023-04-29T12:58:31;1.70;;;1.13;;
12715;SDS011;6422;49.938;9.124;2023-04-29T13:00:58;1.00;;;0.70;;
12715;SDS011;6422;49.938;9.124;2023-04-29T13:03:23;1.17;;;0.77;;
12715;SDS011;6422;49.938;9.124;2023-04-29T13:05:48;1.60;;;0.90;;
12715;SDS011;6422;49.938;9.124;2023-04-29T13:08:16;2.30;;;1.00;;
12715;SDS011;6422;49.938;9.124;2023-04-29T13:10:42;2.63;;;0.90;;
12715;SDS011;6422;49.938;9.124;2023-04-29T13:13:07;1.60;;;1.10;;
12715;SDS011;6422;49.938;9.124;2023-04-29T13:15:33;1.37;;;0.90;;
12715;SDS011;6422;49.938;9.124;2023-04-29T13:17:59;1.70;;;1.07;;
12715;SDS011;6422;49.938;9.124;2023-04-29T13:20:25;1.83;;;0.90;;
12715;SDS011;6422;49.938;9.124;2023-04-29T13:22:50;2.23;;;1.10;;
12715;SDS011;6422;49.938;9.124;2023-04-29T13:25:15;1.10;;;0.80;;
12715;SDS011;6422;49.938;9.124;2023-04-29T13:27:40;1.60;;;1.00;;
12715;SDS011;6422;49.938;9.124;2023-04-29T13:30:06;2.37;;;1.40;;
12715;SDS011;6422;49.938;9.124;2023-04-29T13:32:31;2.20;;;0.90;;
12715;SDS011;6422;49.938;9.124;2023-04-29T13:34:57;1.40;;;0.80;;
12715;SDS011;6422;49.938;9.124;2023-04-29T13:37:22;2.00;;;0.90;;
12715;SDS011;6422;49.938;9.124;2023-04-29T13:39:47;3.10;;;0.75;;
12715;SDS011;6422;49.938;9.124;2023-04-29T13:42:12;3.10;;;1.10;;
12715;SDS011;6422;49.938;9.124;2023-04-29T13:44:37;1.47;;;1.00;;
12715;SDS011;6422;49.938;9.124;2023-04-29T13:47:07;2.47;;;1.67;;
12715;SDS011;6422;49.938;9.124;2023-04-29T13:49:33;1.88;;;1.13;;
12715;SDS011;6422;49.938;9.124;2023-04-29T13:51:58;1.80;;;1.10;;
12715;SDS011;6422;49.938;9.124;2023-04-29T13:54:23;1.33;;;0.93;;
12715;SDS011;6422;49.938;9.124;2023-04-29T13:56:48;1.38;;;0.82;;
12715;SDS011;6422;49.938;9.124;2023-04-29T13:59:13;0.90;;;0.60;;
12715;SDS011;6422;49.938;9.124;2023-04-29T14:01:38;2.60;;;1.07;;
12715;SDS011;6422;49.938;9.124;2023-04-29T14:04:03;1.10;;;0.70;;
12715;SDS011;6422;49.938;9.124;2023-04-29T14:06:29;1.10;;;0.70;;
12715;SDS011;6422;49.938;9.124;2023-04-29T14:08:56;1.03;;;0.70;;
12715;SDS011;6422;49.938;9.124;2023-04-29T14:11:21;1.10;;;0.90;;
12715;SDS011;6422;49.938;9.124;2023-04-29T14:13:46;2.90;;;1.00;;
12715;SDS011;6422;49.938;9.124;2023-04-29T14:16:12;1.80;;;0.80;;
12715;SDS011;6422;49.938;9.124;2023-04-29T14:18:37;1.00;;;0.70;;
12715;SDS011;6422;49.938;9.124;2023-04-29T14:21:02;1.80;;;0.70;;
12715;SDS011;6422;49.938;9.124;2023-04-29T14:23:27;1.03;;;0.80;;
12715;SDS011;6422;49.938;9.124;2023-04-29T14:25:53;11.93;;;1.40;;
12715;SDS011;6422;49.938;9.124;2023-04-29T14:28:18;3.65;;;0.80;;
12715;SDS011;6422;49.938;9.124;2023-04-29T14:30:43;1.20;;;0.75;;
12715;SDS011;6422;49.938;9.124;2023-04-29T14:33:08;1.20;;;0.80;;
12715;SDS011;6422;49.938;9.124;2023-04-29T14:35:33;1.07;;;0.70;;
12715;SDS011;6422;49.938;9.124;2023-04-29T14:37:58;0.93;;;0.60;;
12715;SDS011;6422;49.938;9.124;2023-04-29T14:40:24;1.23;;;0.70;;
12715;SDS011;6422;49.938;9.124;2023-04-29T14:42:49;1.07;;;0.70;;
12715;SDS011;6422;49.938;9.124;2023-04-29T14:45:14;3.90;;;0.93;;
12715;SDS011;6422;49.938;9.124;2023-04-29T14:47:41;1.00;;;0.67;;
12715;SDS011;6422;49.938;9.124;2023-04-29T14:50:06;1.23;;;0.80;;
12715;SDS011;6422;49.938;9.124;2023-04-29T14:52:31;0.87;;;0.50;;
12715;SDS011;6422;49.938;9.124;2023-04-29T14:54:56;1.60;;;1.13;;
12715;SDS011;6422;49.938;9.124;2023-04-29T14:57:22;1.45;;;1.05;;
12715;SDS011;6422;49.938;9.124;2023-04-29T14:59:47;1.20;;;0.80;;
12715;SDS011;6422;49.938;9.124;2023-04-29T15:02:13;0.90;;;0.63;;
12715;SDS011;6422;49.938;9.124;2023-04-29T15:04:38;1.70;;;0.93;;
12715;SDS011;6422;49.938;9.124;2023-04-29T15:07:09;0.97;;;0.70;;
12715;SDS011;6422;49.938;9.124;2023-04-29T15:09:35;1.10;;;0.80;;
12715;SDS011;6422;49.938;9.124;2023-04-29T15:12:00;1.30;;;0.90;;